createdAt,value
2018-01-23T00:00:40.667Z,937.7
2018-01-23T00:01:47.626Z,937.8
2018-01-23T00:02:51.784Z,937.9
2018-01-23T00:03:55.254Z,937.9
2018-01-23T00:04:58.739Z,937.9
2018-01-23T00:06:02.741Z,938
2018-01-23T00:07:06.794Z,938.1
2018-01-23T00:08:11.046Z,938.1
2018-01-23T00:09:14.297Z,938.1
2018-01-23T00:10:17.737Z,938.2
2018-01-23T00:11:21.165Z,938.2
2018-01-23T00:12:28.518Z,938.2
2018-01-23T00:13:31.929Z,938.2
2018-01-23T00:14:35.114Z,938.2
2018-01-23T00:15:39.277Z,938.2
2018-01-23T00:16:43.158Z,938.1
2018-01-23T00:17:46.725Z,938
2018-01-23T00:18:50.706Z,938
2018-01-23T00:19:54.147Z,938
2018-01-23T00:20:57.651Z,938
2018-01-23T00:22:01.680Z,937.9
2018-01-23T00:23:08.450Z,938
2018-01-23T00:24:12.557Z,937.9
2018-01-23T00:25:16.163Z,937.9
2018-01-23T00:26:19.682Z,937.9
2018-01-23T00:27:23.156Z,937.9
2018-01-23T00:28:26.748Z,937.8
2018-01-23T00:29:30.048Z,937.9
2018-01-23T00:30:33.538Z,938
2018-01-23T00:31:37.490Z,938
2018-01-23T00:32:40.891Z,938
2018-01-23T00:33:47.779Z,938.1
2018-01-23T00:34:51.100Z,938.1
2018-01-23T00:35:54.320Z,934.2
2018-01-23T00:36:57.809Z,938.1
2018-01-23T00:38:01.889Z,938.1
2018-01-23T00:39:05.138Z,938.2
2018-01-23T00:40:08.489Z,938.3
2018-01-23T00:41:11.940Z,938.3
2018-01-23T00:42:15.411Z,938.4
2018-01-23T00:43:18.720Z,938.3
2018-01-23T00:44:26.405Z,938.3
2018-01-23T00:45:29.844Z,938.3
2018-01-23T00:46:33.542Z,938.4
2018-01-23T00:47:37.701Z,935.7
2018-01-23T00:48:41.027Z,938.5
2018-01-23T00:49:44.837Z,938.4
2018-01-23T00:50:48.878Z,938.5
2018-01-23T00:51:52.547Z,938.6
2018-01-23T00:52:56.068Z,938.6
2018-01-23T00:53:59.452Z,938.7
2018-01-23T00:55:06.275Z,938.7
2018-01-23T00:56:09.621Z,938.7
2018-01-23T00:57:12.984Z,938.6
2018-01-23T00:58:16.282Z,938.6
2018-01-23T00:59:19.631Z,938.6
2018-01-23T01:00:23.134Z,938.7
2018-01-23T01:01:26.746Z,938.5
2018-01-23T01:02:30.059Z,938.4
2018-01-23T01:03:34.057Z,938.4
2018-01-23T01:04:38.603Z,938.2
2018-01-23T01:05:45.552Z,938.3
2018-01-23T01:06:48.727Z,938.3
2018-01-23T01:07:52.116Z,938.2
2018-01-23T01:08:56.054Z,938.2
2018-01-23T01:10:00.076Z,938.3
2018-01-23T01:11:04.118Z,938.3
2018-01-23T01:12:07.634Z,938.3
2018-01-23T01:13:12.106Z,938.4
2018-01-23T01:14:15.544Z,938.4
2018-01-23T01:15:18.895Z,938.5
2018-01-23T01:16:27.887Z,938.5
2018-01-23T01:17:31.412Z,938.5
2018-01-23T01:18:34.868Z,938.6
2018-01-23T01:19:39.797Z,938.6
2018-01-23T01:20:43.816Z,938.5
2018-01-23T01:21:47.147Z,938.6
2018-01-23T01:22:51.158Z,938.6
2018-01-23T01:23:54.578Z,938.7
2018-01-23T01:24:58.143Z,938.7
2018-01-23T01:26:01.591Z,938.7
2018-01-23T01:27:09.886Z,938.8
2018-01-23T01:28:13.067Z,938.9
2018-01-23T01:29:16.494Z,938.9
2018-01-23T01:30:19.963Z,938.9
2018-01-23T01:31:23.885Z,938.9
2018-01-23T01:32:27.238Z,938.9
2018-01-23T01:33:30.562Z,938.9
2018-01-23T01:34:33.760Z,939
2018-01-23T01:35:37.141Z,939
2018-01-23T01:36:41.590Z,939
2018-01-23T01:37:49.338Z,939
2018-01-23T01:38:52.749Z,939
2018-01-23T01:39:56.163Z,939
2018-01-23T01:41:00.057Z,939
2018-01-23T01:42:03.715Z,939
2018-01-23T01:43:06.805Z,938.9
2018-01-23T01:44:10.150Z,935.1
2018-01-23T01:45:13.672Z,939
2018-01-23T01:46:17.165Z,938.9
2018-01-23T01:47:20.590Z,939
2018-01-23T01:48:28.390Z,938.9
2018-01-23T01:49:32.451Z,939
2018-01-23T01:50:36.552Z,939
2018-01-23T01:51:40.984Z,939
2018-01-23T01:52:44.460Z,939
2018-01-23T01:53:48.436Z,939
2018-01-23T01:54:51.833Z,939
2018-01-23T01:55:55.255Z,939.1
2018-01-23T01:57:00.164Z,939.1
2018-01-23T01:58:04.248Z,939.2
2018-01-23T01:59:11.232Z,939.2
2018-01-23T02:00:14.667Z,939.2
2018-01-23T02:01:18.173Z,939.2
2018-01-23T02:02:21.530Z,939.3
2018-01-23T02:03:24.592Z,939.3
2018-01-23T02:04:28.059Z,939.3
2018-01-23T02:05:31.493Z,939.2
2018-01-23T02:06:34.921Z,939.3
2018-01-23T02:07:38.208Z,939.2
2018-01-23T02:08:42.356Z,939.2
2018-01-23T02:09:49.146Z,939.3
2018-01-23T02:10:52.480Z,939.3
2018-01-23T02:11:55.894Z,939.3
2018-01-23T02:12:59.373Z,939.3
2018-01-23T02:14:02.869Z,939.3
2018-01-23T02:15:06.364Z,939.2
2018-01-23T02:16:09.902Z,939.1
2018-01-23T02:17:13.418Z,939.2
2018-01-23T02:18:17.468Z,939.2
2018-01-23T02:19:20.721Z,939.3
2018-01-23T02:20:28.607Z,939.3
2018-01-23T02:21:32.003Z,939.4
2018-01-23T02:22:35.797Z,939.5
2018-01-23T02:23:39.172Z,939.5
2018-01-23T02:24:42.652Z,939.5
2018-01-23T02:25:45.932Z,939.6
2018-01-23T02:26:49.331Z,939.6
2018-01-23T02:27:53.912Z,939.7
2018-01-23T02:28:57.031Z,939.7
2018-01-23T02:30:00.495Z,939.6
2018-01-23T02:31:07.463Z,939.5
2018-01-23T02:32:10.934Z,939.5
2018-01-23T02:33:14.610Z,939.5
2018-01-23T02:34:18.655Z,939.6
2018-01-23T02:35:22.016Z,939.7
2018-01-23T02:36:25.454Z,939.7
2018-01-23T02:37:29.741Z,939.9
2018-01-23T02:38:34.493Z,939.9
2018-01-23T02:39:38.525Z,939.9
2018-01-23T02:40:41.750Z,939.8
2018-01-23T02:41:48.678Z,939.9
2018-01-23T02:42:52.025Z,939.9
2018-01-23T02:43:55.409Z,939.8
2018-01-23T02:44:59.044Z,939.8
2018-01-23T02:46:02.502Z,940
2018-01-23T02:47:06.511Z,939.9
2018-01-23T02:48:09.831Z,939.9
2018-01-23T02:49:14.452Z,939.9
2018-01-23T02:50:17.922Z,939.9
2018-01-23T02:51:21.395Z,939.9
2018-01-23T02:52:29.096Z,940
2018-01-23T02:53:33.066Z,939.9
2018-01-23T02:54:37.094Z,940
2018-01-23T02:55:40.537Z,939.9
2018-01-23T02:56:43.944Z,939.9
2018-01-23T02:57:47.416Z,940
2018-01-23T02:58:50.885Z,940
2018-01-23T02:59:54.589Z,940.1
2018-01-23T03:00:57.851Z,940
2018-01-23T03:02:01.361Z,940.1
2018-01-23T03:03:08.642Z,940.1
2018-01-23T03:04:12.017Z,940.2
2018-01-23T03:05:16.110Z,940.1
2018-01-23T03:06:19.551Z,940.1
2018-01-23T03:07:23.528Z,940.1
2018-01-23T03:08:28.134Z,940.2
2018-01-23T03:09:32.663Z,940.1
2018-01-23T03:10:36.640Z,940.3
2018-01-23T03:11:39.989Z,940.4
2018-01-23T03:12:44.195Z,940.1
2018-01-23T03:13:51.529Z,940.2
2018-01-23T03:14:54.822Z,940.1
2018-01-23T03:15:58.906Z,940.2
2018-01-23T03:17:02.364Z,940.2
2018-01-23T03:18:05.688Z,940.2
2018-01-23T03:19:10.070Z,940.2
2018-01-23T03:20:13.401Z,940.2
2018-01-23T03:21:16.735Z,940.2
2018-01-23T03:22:20.750Z,940.2
2018-01-23T03:23:24.324Z,940.2
2018-01-23T03:24:31.366Z,940.2
2018-01-23T03:25:34.771Z,940.2
2018-01-23T03:26:38.412Z,940.1
2018-01-23T03:27:41.805Z,940.2
2018-01-23T03:28:45.219Z,940.3
2018-01-23T03:29:48.554Z,940.2
2018-01-23T03:30:52.011Z,940.3
2018-01-23T03:31:55.813Z,940.3
2018-01-23T03:33:00.785Z,940.4
2018-01-23T03:34:04.150Z,940.5
2018-01-23T03:35:11.547Z,940.5
2018-01-23T03:36:14.982Z,940.5
2018-01-23T03:37:20.237Z,940.5
2018-01-23T03:38:23.365Z,940.7
2018-01-23T03:39:26.774Z,940.6
2018-01-23T03:40:30.216Z,940.7
2018-01-23T03:41:34.235Z,940.8
2018-01-23T03:42:37.812Z,940.7
2018-01-23T03:43:41.117Z,940.8
2018-01-23T03:44:44.523Z,940.9
2018-01-23T03:45:52.113Z,940.8
2018-01-23T03:46:55.523Z,940.8
2018-01-23T03:47:59.053Z,940.9
2018-01-23T03:49:02.328Z,940.8
2018-01-23T03:50:05.673Z,940.8
2018-01-23T03:51:08.723Z,940.9
2018-01-23T03:52:12.199Z,940.8
2018-01-23T03:53:15.294Z,940.8
2018-01-23T03:54:18.576Z,940.9
2018-01-23T03:55:21.796Z,940.9
2018-01-23T03:56:29.452Z,940.9
2018-01-23T03:57:32.526Z,941
2018-01-23T03:58:36.209Z,941
2018-01-23T03:59:39.803Z,941
2018-01-23T04:00:43.228Z,941.1
2018-01-23T04:01:46.686Z,941.1
2018-01-23T04:02:50.423Z,941
2018-01-23T04:03:55.085Z,941
2018-01-23T04:04:58.449Z,941.1
2018-01-23T04:06:01.678Z,941.2
2018-01-23T04:07:09.809Z,941.1
2018-01-23T04:08:13.156Z,941.2
2018-01-23T04:09:16.652Z,941.1
2018-01-23T04:10:20.076Z,941.3
2018-01-23T04:11:23.295Z,937.3
2018-01-23T04:12:27.317Z,941.2
2018-01-23T04:13:30.770Z,941.3
2018-01-23T04:14:34.229Z,941.2
2018-01-23T04:15:38.258Z,941.2
2018-01-23T04:16:41.654Z,941.2
2018-01-23T04:17:49.265Z,941.2
2018-01-23T04:18:52.711Z,941.2
2018-01-23T04:19:56.198Z,941.2
2018-01-23T04:20:59.604Z,941.2
2018-01-23T04:22:03.104Z,941.2
2018-01-23T04:23:06.435Z,941.3
2018-01-23T04:24:09.697Z,941.2
2018-01-23T04:25:14.350Z,941.2
2018-01-23T04:26:17.658Z,941.2
2018-01-23T04:27:22.623Z,941.2
2018-01-23T04:28:29.639Z,941.2
2018-01-23T04:29:33.119Z,941.1
2018-01-23T04:30:36.487Z,941.2
2018-01-23T04:31:39.802Z,941.2
2018-01-23T04:32:43.291Z,941.2
2018-01-23T04:33:46.637Z,941.2
2018-01-23T04:34:50.103Z,941.2
2018-01-23T04:35:53.603Z,941.2
2018-01-23T04:36:57.087Z,941.3
2018-01-23T04:38:00.485Z,941.2
2018-01-23T04:39:09.311Z,941.2
2018-01-23T04:40:12.667Z,941.2
2018-01-23T04:41:16.639Z,941.2
2018-01-23T04:42:19.983Z,941.2
2018-01-23T04:43:23.492Z,941.2
2018-01-23T04:44:26.901Z,941.2
2018-01-23T04:45:30.200Z,941.2
2018-01-23T04:46:33.519Z,941.1
2018-01-23T04:47:36.983Z,941.3
2018-01-23T04:48:40.415Z,941.2
2018-01-23T04:49:48.125Z,941.3
2018-01-23T04:50:51.329Z,941.3
2018-01-23T04:51:55.534Z,941.3
2018-01-23T04:52:59.505Z,941.4
2018-01-23T04:54:02.774Z,937.5
2018-01-23T04:55:07.288Z,941.4
2018-01-23T04:56:10.864Z,941.5
2018-01-23T04:57:15.532Z,937.7
2018-01-23T04:58:18.845Z,941.5
2018-01-23T04:59:22.168Z,941.5
2018-01-23T05:00:29.250Z,941.5
2018-01-23T05:01:32.709Z,941.5
2018-01-23T05:02:36.177Z,937.6
2018-01-23T05:03:39.592Z,941.5
2018-01-23T05:04:43.095Z,941.6
2018-01-23T05:05:47.066Z,941.6
2018-01-23T05:06:50.702Z,941.6
2018-01-23T05:07:55.108Z,941.6
2018-01-23T05:08:59.240Z,941.5
2018-01-23T05:10:03.105Z,941.5
2018-01-23T05:11:10.298Z,941.5
2018-01-23T05:12:14.337Z,941.4
2018-01-23T05:13:18.174Z,941.5
2018-01-23T05:14:21.618Z,941.5
2018-01-23T05:15:24.976Z,941.5
2018-01-23T05:16:28.954Z,941.5
2018-01-23T05:17:32.421Z,941.5
2018-01-23T05:18:35.920Z,941.6
2018-01-23T05:19:39.267Z,941.5
2018-01-23T05:20:42.640Z,941.5
2018-01-23T05:21:49.763Z,941.5
2018-01-23T05:22:53.035Z,941.6
2018-01-23T05:23:57.078Z,941.6
2018-01-23T05:25:00.454Z,941.5
2018-01-23T05:26:03.873Z,941.6
2018-01-23T05:27:07.921Z,941.7
2018-01-23T05:28:11.395Z,941.7
2018-01-23T05:29:14.783Z,941.7
2018-01-23T05:30:18.782Z,941.7
2018-01-23T05:31:22.291Z,941.7
2018-01-23T05:32:29.918Z,941.7
2018-01-23T05:33:33.254Z,941.8
2018-01-23T05:34:36.577Z,941.8
2018-01-23T05:35:41.120Z,941.9
2018-01-23T05:36:44.523Z,941.9
2018-01-23T05:37:48.226Z,942
2018-01-23T05:38:51.649Z,942.1
2018-01-23T05:39:55.281Z,942
2018-01-23T05:40:58.672Z,942.1
2018-01-23T05:42:02.075Z,942.1
2018-01-23T05:43:09.041Z,942.1
2018-01-23T05:44:12.300Z,942.1
2018-01-23T05:45:15.686Z,942.1
2018-01-23T05:46:19.190Z,942.2
2018-01-23T05:47:23.965Z,942.2
2018-01-23T05:48:27.386Z,942.1
2018-01-23T05:49:30.791Z,942.2
2018-01-23T05:50:34.249Z,942.2
2018-01-23T05:51:37.645Z,942.2
2018-01-23T05:52:41.131Z,942.3
2018-01-23T05:53:48.932Z,942.3
2018-01-23T05:54:52.309Z,942.4
2018-01-23T05:55:57.406Z,942.3
2018-01-23T05:57:00.864Z,942.3
2018-01-23T05:58:04.359Z,942.3
2018-01-23T05:59:08.548Z,942.3
2018-01-23T06:00:12.022Z,942.3
2018-01-23T06:01:15.576Z,942.3
2018-01-23T06:02:19.038Z,942.4
2018-01-23T06:03:22.894Z,942.4
2018-01-23T06:05:02.680Z,942.4
2018-01-23T06:06:06.676Z,942.5
2018-01-23T06:07:10.103Z,942.4
2018-01-23T06:08:13.935Z,942.4
2018-01-23T06:09:17.297Z,942.5
2018-01-23T06:10:21.175Z,942.4
2018-01-23T06:11:24.501Z,942.4
2018-01-23T06:12:27.921Z,942.5
2018-01-23T06:13:31.871Z,942.6
2018-01-23T06:14:35.258Z,942.5
2018-01-23T06:15:42.179Z,942.5
2018-01-23T06:16:45.584Z,942.6
2018-01-23T06:17:49.625Z,942.4
2018-01-23T06:18:53.768Z,942.5
2018-01-23T06:19:57.254Z,942.6
2018-01-23T06:21:00.470Z,942.5
2018-01-23T06:22:04.543Z,942.5
2018-01-23T06:23:07.965Z,942.5
2018-01-23T06:24:12.125Z,942.5
2018-01-23T06:25:15.481Z,942.6
2018-01-23T06:26:22.819Z,942.4
2018-01-23T06:27:26.937Z,942.6
2018-01-23T06:28:30.495Z,942.5
2018-01-23T06:29:34.660Z,942.6
2018-01-23T06:30:37.843Z,942.5
2018-01-23T06:31:41.306Z,942.7
2018-01-23T06:32:45.491Z,942.6
2018-01-23T06:33:48.914Z,942.7
2018-01-23T06:34:52.438Z,942.7
2018-01-23T06:35:56.169Z,942.7
2018-01-23T06:37:03.651Z,938.7
2018-01-23T06:38:07.001Z,942.7
2018-01-23T06:39:10.449Z,942.7
2018-01-23T06:40:13.840Z,942.7
2018-01-23T06:41:17.167Z,942.8
2018-01-23T06:42:20.335Z,942.7
2018-01-23T06:43:23.769Z,942.8
2018-01-23T06:44:27.327Z,942.8
2018-01-23T06:45:31.130Z,942.8
2018-01-23T06:46:34.556Z,942.8
2018-01-23T06:47:41.557Z,942.9
2018-01-23T06:48:44.978Z,942.9
2018-01-23T06:49:48.493Z,942.9
2018-01-23T06:50:52.552Z,943
2018-01-23T06:51:56.623Z,942.9
2018-01-23T06:53:00.652Z,943
2018-01-23T06:54:04.525Z,943
2018-01-23T06:55:08.924Z,942.9
2018-01-23T06:56:12.524Z,943
2018-01-23T06:57:15.919Z,943
2018-01-23T06:58:22.916Z,943
2018-01-23T06:59:26.158Z,939
2018-01-23T07:00:29.663Z,943
2018-01-23T07:01:33.264Z,943.1
2018-01-23T07:02:36.643Z,943.1
2018-01-23T07:03:40.026Z,943.1
2018-01-23T07:04:43.613Z,943.2
2018-01-23T07:05:48.765Z,943.1
2018-01-23T07:06:52.080Z,943.2
2018-01-23T07:07:55.552Z,943.2
2018-01-23T07:09:02.420Z,943.3
2018-01-23T07:10:05.924Z,943.2
2018-01-23T07:11:09.827Z,943.2
2018-01-23T07:12:13.194Z,943.2
2018-01-23T07:13:16.691Z,943.3
2018-01-23T07:14:20.101Z,943.3
2018-01-23T07:15:23.750Z,943.3
2018-01-23T07:16:27.772Z,943.3
2018-01-23T07:17:31.054Z,943.3
2018-01-23T07:18:35.642Z,943.4
2018-01-23T07:19:42.884Z,943.3
2018-01-23T07:20:46.367Z,943.4
2018-01-23T07:21:49.803Z,943.4
2018-01-23T07:22:53.827Z,943.4
2018-01-23T07:23:57.397Z,943.5
2018-01-23T07:25:00.711Z,943.5
2018-01-23T07:26:05.443Z,943.5
2018-01-23T07:27:08.786Z,943.5
2018-01-23T07:28:12.821Z,943.5
2018-01-23T07:29:17.312Z,943.5
2018-01-23T07:30:56.616Z,943.5
2018-01-23T07:32:00.716Z,943.5
2018-01-23T07:33:05.414Z,943.6
2018-01-23T07:34:08.876Z,943.7
2018-01-23T07:35:12.252Z,943.6
2018-01-23T07:36:15.985Z,943.6
2018-01-23T07:37:19.875Z,943.6
2018-01-23T07:38:23.231Z,943.6
2018-01-23T07:39:27.458Z,943.7
2018-01-23T07:40:31.576Z,943.6
2018-01-23T07:41:39.718Z,943.8
2018-01-23T07:42:43.150Z,943.7
2018-01-23T07:43:47.770Z,943.7
2018-01-23T07:44:51.079Z,943.7
2018-01-23T07:45:57.693Z,943.7
2018-01-23T07:47:03.097Z,943.7
2018-01-23T07:48:08.575Z,943.8
2018-01-23T07:49:13.337Z,943.9
2018-01-23T07:50:17.166Z,943.7
2018-01-23T07:51:20.519Z,943.9
2018-01-23T07:52:30.690Z,943.7
2018-01-23T07:53:34.026Z,943.8
2018-01-23T07:54:39.526Z,943.8
2018-01-23T07:55:42.838Z,943.9
2018-01-23T07:56:47.428Z,943.9
2018-01-23T07:57:51.965Z,943.8
2018-01-23T07:58:55.969Z,943.9
2018-01-23T08:00:00.672Z,943.8
2018-01-23T08:01:04.558Z,944
2018-01-23T08:02:08.696Z,943.9
2018-01-23T08:03:17.594Z,944
2018-01-23T08:04:21.566Z,944.1
2018-01-23T08:05:27.564Z,944
2018-01-23T08:06:31.411Z,944.1
2018-01-23T08:07:34.828Z,944.1
2018-01-23T08:08:38.362Z,944.1
2018-01-23T08:09:42.289Z,944.2
2018-01-23T08:10:46.331Z,944.1
2018-01-23T08:11:49.605Z,940.5
2018-01-23T08:12:53.651Z,944.2
2018-01-23T08:14:02.169Z,944.1
2018-01-23T08:15:05.549Z,944.2
2018-01-23T08:16:09.194Z,944.2
2018-01-23T08:17:13.315Z,944.2
2018-01-23T08:18:17.133Z,944.1
2018-01-23T08:19:20.661Z,944.1
2018-01-23T08:20:25.313Z,944.2
2018-01-23T08:21:29.723Z,944.2
2018-01-23T08:22:34.000Z,944.2
2018-01-23T08:23:38.970Z,944.2
2018-01-23T08:24:49.108Z,944.2
2018-01-23T08:25:54.531Z,944.3
2018-01-23T08:26:59.793Z,940.3
2018-01-23T08:28:03.819Z,944.3
2018-01-23T08:29:08.953Z,944.3
2018-01-23T08:30:15.094Z,944.4
2018-01-23T08:31:19.063Z,944.4
2018-01-23T08:32:22.960Z,944.4
2018-01-23T08:33:26.491Z,944.4
2018-01-23T08:34:31.557Z,944.5
2018-01-23T08:35:41.640Z,944.4
2018-01-23T08:36:48.638Z,944.4
2018-01-23T08:37:52.784Z,944.5
2018-01-23T08:38:56.210Z,944.4
2018-01-23T08:40:01.208Z,944.4
2018-01-23T08:41:06.574Z,940.3
2018-01-23T08:42:12.055Z,944.5
2018-01-23T08:43:17.722Z,944.5
2018-01-23T08:44:21.911Z,944.5
2018-01-23T08:45:26.698Z,944.5
2018-01-23T08:47:07.164Z,944.6
2018-01-23T08:48:11.123Z,944.5
2018-01-23T08:49:15.059Z,944.5
2018-01-23T08:50:19.144Z,944.5
2018-01-23T08:51:22.462Z,944.6
2018-01-23T08:52:26.657Z,944.5
2018-01-23T08:53:30.743Z,944.6
2018-01-23T08:54:34.650Z,944.6
2018-01-23T08:55:39.569Z,944.5
2018-01-23T08:56:43.864Z,944.6
2018-01-23T08:57:53.236Z,944.6
2018-01-23T08:58:57.936Z,944.7
2018-01-23T09:00:01.283Z,944.7
2018-01-23T09:01:06.459Z,944.8
2018-01-23T09:02:10.086Z,944.7
2018-01-23T09:03:13.578Z,944.7
2018-01-23T09:04:17.105Z,944.8
2018-01-23T09:05:20.971Z,944.8
2018-01-23T09:06:24.752Z,944.8
2018-01-23T09:07:29.911Z,944.8
2018-01-23T09:08:37.395Z,944.8
2018-01-23T09:09:40.652Z,944.8
2018-01-23T09:10:44.284Z,944.7
2018-01-23T09:11:47.953Z,944.9
2018-01-23T09:12:51.488Z,944.8
2018-01-23T09:13:54.907Z,944.8
2018-01-23T09:14:58.314Z,944.8
2018-01-23T09:16:02.318Z,944.9
2018-01-23T09:17:05.735Z,944.9
2018-01-23T09:18:09.360Z,944.9
2018-01-23T09:19:48.935Z,945.1
2018-01-23T09:20:52.312Z,944.9
2018-01-23T09:21:55.672Z,945
2018-01-23T09:22:59.649Z,945
2018-01-23T09:24:03.461Z,945
2018-01-23T09:25:07.026Z,945
2018-01-23T09:26:10.496Z,945
2018-01-23T09:27:13.844Z,945
2018-01-23T09:28:17.275Z,945
2018-01-23T09:29:20.523Z,945
2018-01-23T09:30:27.521Z,945
2018-01-23T09:31:30.983Z,945
2018-01-23T09:32:34.753Z,945
2018-01-23T09:33:38.203Z,945.1
2018-01-23T09:34:41.709Z,945
2018-01-23T09:35:45.110Z,938.2
2018-01-23T09:36:48.520Z,945.2
2018-01-23T09:37:52.333Z,945.2
2018-01-23T09:38:55.632Z,945.1
2018-01-23T09:39:59.196Z,945.1
2018-01-23T09:41:06.017Z,945
2018-01-23T09:42:10.620Z,945
2018-01-23T09:43:14.051Z,945
2018-01-23T09:44:17.442Z,945.1
2018-01-23T09:45:21.755Z,945
2018-01-23T09:46:25.289Z,945.1
2018-01-23T09:47:28.779Z,945.1
2018-01-23T09:48:32.400Z,945
2018-01-23T09:49:37.839Z,945.1
2018-01-23T09:50:41.190Z,945.1
2018-01-23T09:51:48.278Z,945.1
2018-01-23T09:52:51.820Z,945.2
2018-01-23T09:53:55.198Z,945.1
2018-01-23T09:55:00.534Z,945.1
2018-01-23T09:56:03.973Z,945.1
2018-01-23T09:57:07.406Z,945.2
2018-01-23T09:58:10.916Z,945.1
2018-01-23T09:59:14.462Z,945.2
2018-01-23T10:00:17.868Z,945.2
2018-01-23T10:01:21.369Z,945.1
2018-01-23T10:02:28.571Z,945.2
2018-01-23T10:03:32.762Z,945.2
2018-01-23T10:04:36.079Z,945.2
2018-01-23T10:05:39.484Z,945.2
2018-01-23T10:06:44.194Z,945.2
2018-01-23T10:07:48.378Z,945.2
2018-01-23T10:08:52.326Z,945.2
2018-01-23T10:09:56.776Z,945.2
2018-01-23T10:11:00.802Z,945.1
2018-01-23T10:12:06.020Z,945.1
2018-01-23T10:13:12.916Z,945.2
2018-01-23T10:14:17.684Z,945.1
2018-01-23T10:15:20.981Z,945.2
2018-01-23T10:16:24.420Z,945.1
2018-01-23T10:17:28.580Z,945.1
2018-01-23T10:18:32.057Z,945
2018-01-23T10:19:36.088Z,945
2018-01-23T10:20:39.710Z,945
2018-01-23T10:21:43.242Z,945.1
2018-01-23T10:22:46.698Z,945
2018-01-23T10:23:53.870Z,945
2018-01-23T10:24:57.981Z,945
2018-01-23T10:26:02.086Z,945
2018-01-23T10:27:06.563Z,945
2018-01-23T10:28:09.911Z,945
2018-01-23T10:29:13.323Z,945
2018-01-23T10:30:17.901Z,945
2018-01-23T10:31:23.730Z,945
2018-01-23T10:32:28.123Z,944.9
2018-01-23T10:33:31.532Z,945
2018-01-23T10:34:39.649Z,945
2018-01-23T10:35:44.017Z,944.9
2018-01-23T10:36:50.196Z,944.9
2018-01-23T10:37:54.872Z,943.1
2018-01-23T10:38:58.417Z,944.9
2018-01-23T10:40:02.490Z,945
2018-01-23T10:41:06.000Z,944.9
2018-01-23T10:42:10.002Z,945
2018-01-23T10:43:13.412Z,945
2018-01-23T10:44:17.341Z,944.9
2018-01-23T10:45:24.380Z,944.9
2018-01-23T10:46:27.839Z,944.9
2018-01-23T10:47:32.019Z,945
2018-01-23T10:48:36.671Z,944.9
2018-01-23T10:49:40.761Z,944.9
2018-01-23T10:50:44.296Z,944.9
2018-01-23T10:51:48.329Z,944.8
2018-01-23T10:52:52.292Z,944.9
2018-01-23T10:53:56.447Z,944.8
2018-01-23T10:55:00.262Z,944.9
2018-01-23T10:56:09.442Z,944.8
2018-01-23T10:57:13.479Z,944.9
2018-01-23T10:58:16.812Z,944.8
2018-01-23T10:59:22.583Z,944.8
2018-01-23T11:00:26.611Z,944.8
2018-01-23T11:01:31.837Z,944.8
2018-01-23T11:02:36.472Z,944.7
2018-01-23T11:03:42.330Z,944.8
2018-01-23T11:04:46.357Z,944.7
2018-01-23T11:05:49.787Z,944.7
2018-01-23T11:06:57.406Z,944.7
2018-01-23T11:08:00.832Z,944.7
2018-01-23T11:09:04.168Z,944.7
2018-01-23T11:10:07.580Z,944.8
2018-01-23T11:11:11.644Z,944.6
2018-01-23T11:12:16.430Z,944.5
2018-01-23T11:13:21.127Z,944.6
2018-01-23T11:14:25.143Z,944.6
2018-01-23T11:15:29.632Z,944.7
2018-01-23T11:16:35.421Z,944.6
2018-01-23T11:17:42.907Z,944.7
2018-01-23T11:18:46.671Z,944.6
2018-01-23T11:19:50.678Z,944.6
2018-01-23T11:20:54.291Z,944.6
2018-01-23T11:21:59.190Z,944.6
2018-01-23T11:23:03.775Z,944.6
2018-01-23T11:24:08.703Z,944.6
2018-01-23T11:25:14.062Z,940.9
2018-01-23T11:26:18.626Z,944.6
2018-01-23T11:27:23.856Z,944.6
2018-01-23T11:28:33.181Z,944.6
2018-01-23T11:29:37.845Z,944.6
2018-01-23T11:30:42.058Z,944.6
2018-01-23T11:31:48.417Z,944.6
2018-01-23T11:32:53.896Z,944.6
2018-01-23T11:33:57.695Z,944.6
2018-01-23T11:35:01.540Z,944.6
2018-01-23T11:36:05.655Z,944.5
2018-01-23T11:37:10.680Z,944.5
2018-01-23T11:38:16.059Z,944.6
2018-01-23T11:39:25.572Z,943.3
2018-01-23T11:40:29.053Z,944.5
2018-01-23T11:41:35.999Z,944.6
2018-01-23T11:42:39.970Z,944.5
2018-01-23T11:43:44.252Z,944.5
2018-01-23T11:44:48.853Z,944.6
2018-01-23T11:45:52.923Z,944.5
2018-01-23T11:46:56.286Z,944.5
2018-01-23T11:48:02.318Z,944.6
2018-01-23T11:49:06.498Z,944.5
2018-01-23T11:50:14.055Z,944.5
2018-01-23T11:51:18.181Z,944.7
2018-01-23T11:52:23.272Z,944.6
2018-01-23T11:53:27.462Z,944.6
2018-01-23T11:54:30.923Z,944.6
2018-01-23T11:55:35.397Z,944.6
2018-01-23T11:56:39.758Z,944.5
2018-01-23T11:57:44.445Z,944.6
2018-01-23T11:58:47.963Z,944.6
2018-01-23T11:59:52.408Z,944.6
2018-01-23T12:01:01.259Z,944.5
2018-01-23T12:02:04.755Z,944.6
2018-01-23T12:03:09.204Z,944.5
2018-01-23T12:04:13.954Z,944.5
2018-01-23T12:05:19.539Z,944.6
2018-01-23T12:06:22.885Z,940.8
2018-01-23T12:07:26.451Z,944.5
2018-01-23T12:08:29.823Z,944.6
2018-01-23T12:09:33.337Z,944.5
2018-01-23T12:10:36.802Z,944.5
2018-01-23T12:11:45.598Z,944.5
2018-01-23T12:12:50.354Z,944.2
2018-01-23T12:13:55.493Z,944.5
2018-01-23T12:15:01.947Z,944.5
2018-01-23T12:16:06.120Z,944.5
2018-01-23T12:17:11.138Z,944.5
2018-01-23T12:18:15.142Z,944.4
2018-01-23T12:19:18.816Z,944.5
2018-01-23T12:20:23.577Z,944.5
2018-01-23T12:21:27.885Z,944.4
2018-01-23T12:22:35.600Z,944.5
2018-01-23T12:23:39.515Z,944.5
2018-01-23T12:24:43.694Z,944.4
2018-01-23T12:25:47.285Z,944.4
2018-01-23T12:26:50.723Z,944.5
2018-01-23T12:27:54.196Z,944.5
2018-01-23T12:28:58.216Z,944.5
2018-01-23T12:30:01.644Z,944.4
2018-01-23T12:31:06.070Z,944.4
2018-01-23T12:32:09.590Z,944.4
2018-01-23T12:33:17.991Z,940.9
2018-01-23T12:34:21.334Z,944.4
2018-01-23T12:35:24.796Z,944.4
2018-01-23T12:36:28.259Z,944.4
2018-01-23T12:37:32.364Z,944.4
2018-01-23T12:38:35.798Z,944.3
2018-01-23T12:39:39.149Z,944.3
2018-01-23T12:40:43.302Z,944.3
2018-01-23T12:41:48.080Z,944.3
2018-01-23T12:42:52.227Z,944.3
2018-01-23T12:44:00.425Z,944.4
2018-01-23T12:45:04.391Z,944.3
2018-01-23T12:46:07.868Z,944.4
2018-01-23T12:47:12.254Z,944.3
2018-01-23T12:48:16.877Z,944.2
2018-01-23T12:49:20.286Z,944.3
2018-01-23T12:50:25.689Z,944.3
2018-01-23T12:51:29.188Z,944.3
2018-01-23T12:52:35.364Z,944.3
2018-01-23T12:53:41.452Z,944.3
2018-01-23T12:54:50.444Z,944.2
2018-01-23T12:55:58.484Z,944.3
2018-01-23T12:57:01.948Z,940.7
2018-01-23T12:58:05.405Z,944.3
2018-01-23T12:59:13.398Z,944.2
2018-01-23T13:00:18.066Z,944.2
2018-01-23T13:01:25.108Z,944.2
2018-01-23T13:02:29.758Z,944.3
2018-01-23T13:03:34.140Z,944.2
2018-01-23T13:04:40.646Z,944.3
2018-01-23T13:06:24.790Z,944.3
2018-01-23T13:07:31.448Z,944.3
2018-01-23T13:08:36.673Z,944.3
2018-01-23T13:09:41.315Z,944.3
2018-01-23T13:10:47.486Z,944.3
2018-01-23T13:11:50.942Z,944.3
2018-01-23T13:12:55.982Z,944.3
2018-01-23T13:14:00.172Z,944.3
2018-01-23T13:15:04.862Z,944.3
2018-01-23T13:16:08.905Z,944.3
2018-01-23T13:17:19.531Z,944.3
2018-01-23T13:18:24.098Z,940.7
2018-01-23T13:19:27.617Z,944.2
2018-01-23T13:20:32.762Z,944.3
2018-01-23T13:21:36.692Z,944.2
2018-01-23T13:22:40.085Z,944.2
2018-01-23T13:23:44.782Z,944.2
2018-01-23T13:24:48.621Z,944.2
2018-01-23T13:25:54.314Z,944.2
2018-01-23T13:26:58.386Z,944.2
2018-01-23T13:28:05.424Z,944.2
2018-01-23T13:29:08.772Z,944.2
2018-01-23T13:30:13.712Z,944.2
2018-01-23T13:31:19.141Z,940.7
2018-01-23T13:32:22.603Z,944.2
2018-01-23T13:33:29.368Z,944.1
2018-01-23T13:34:33.517Z,944.2
2018-01-23T13:35:38.982Z,944.2
2018-01-23T13:36:42.986Z,944.1
2018-01-23T13:37:46.617Z,944.1
2018-01-23T13:38:55.604Z,944.2
2018-01-23T13:39:59.646Z,940.6
2018-01-23T13:41:03.830Z,944.2
2018-01-23T13:42:08.388Z,944.1
2018-01-23T13:43:13.065Z,944.1
2018-01-23T13:44:17.323Z,944.2
2018-01-23T13:45:26.190Z,944.2
2018-01-23T13:46:31.699Z,944.2
2018-01-23T13:47:35.971Z,944.2
2018-01-23T13:48:39.657Z,944.2
2018-01-23T13:49:49.603Z,944.2
2018-01-23T13:50:53.142Z,944.2
2018-01-23T13:51:57.471Z,944.2
2018-01-23T13:53:04.475Z,944.3
2018-01-23T13:54:08.969Z,944.2
2018-01-23T13:55:13.079Z,944.2
2018-01-23T13:56:17.390Z,944.2
2018-01-23T13:57:21.844Z,944.2